Liberal Mid-America Regional Airport
KLBL : rendu visible

Aérodrome :











RETROUVEZ-NOUS SUR...

 
LOGIN :

S'inscrire | Disclaimer

   EN    FR    IT 

 









Légende :    VFR   VFR Marginal   IFR   IFR Intensif   IFR Très Intensif
Visi : 
Plafond : 
>= 8 km
>= 3000ft
5 à 8 km
1000 à 3000 ft
1500m à 5 km
500 à 1000 ft
800 à 1500m
200 à 500 ft
< 800m
< 200 ft
Symboles :   Orages  Brouillard  Fortes neiges  Fortes précipitations  Vent > 20 kt






- Altitude de l'aérodrome : 2885 ft
- Code IATA : LBL


KLBL - Liberal Mid-America Regional

DERNIER METAR :
  • 230056Z AUTO 27008KT 10SM CLR 07/01 A2985 RMK AO2 SLP112 T00720011

METARs EXPIRÉS :
  • 222356Z AUTO 22004KT 10SM CLR 08/01 A2981 RMK AO2 SLP098 T00780006 10133 20061 53008
  • 222256Z AUTO 00000KT 10SM CLR 12/00 A2980 RMK AO2 SLP087 T01220000

TAF KLBL
Valide du 23 à 00h jusqu'au 24 à 00h UTC


222331Z 2300/2324 32010KT P6SM SCT150
FM230600 32013KT P6SM SCT120
FM231700 32015G25KT P6SM FEW250



MET'MAP, la Météo Aéronautique d'un coup d'oeil ! - Copyright ORBIFLY Décembre 2007 - Disclaimer

ORBIFLY MET'MAP TEAM :

Programmation & Développement : Alexandra Zaïnal
Sur une idée originale de : Baudouin d'Aumeries
Assistance à la programmation : Marc-Olivier Méhu
Soutien technique & logistique : Manuel Goepfert

Contact : metmap@orbifly.com




SOURCES & CREDITS :

   NOAA       Earth
Advisory